createdAt,value
2019-04-06T00:01:34.652Z,42.67
2019-04-06T00:06:36.143Z,40.33
2019-04-06T00:11:37.508Z,41.17
2019-04-06T00:16:38.906Z,44.33
2019-04-06T00:21:40.255Z,43.50
2019-04-06T00:26:41.637Z,44.20
2019-04-06T00:31:56.878Z,47.47
2019-04-06T00:36:58.254Z,43.63
2019-04-06T00:41:59.835Z,43.13
2019-04-06T00:47:01.322Z,43.77
2019-04-06T00:52:02.824Z,43.23
2019-04-06T00:57:04.289Z,43.97
2019-04-06T01:02:06.172Z,45.90
2019-04-06T01:07:07.645Z,44.67
2019-04-06T01:12:09.027Z,46.13
2019-04-06T01:17:10.461Z,43.93
2019-04-06T01:22:11.782Z,44.53
2019-04-06T01:27:13.175Z,44.00
2019-04-06T01:32:14.554Z,48.77
2019-04-06T01:37:16.314Z,47.40
2019-04-06T01:42:17.799Z,47.00
2019-04-06T01:47:19.158Z,49.23
2019-04-06T01:52:20.608Z,49.73
2019-04-06T01:57:22.086Z,50.67
2019-04-06T02:02:28.248Z,46.60
2019-04-06T02:07:29.632Z,50.10
2019-04-06T02:12:31.013Z,48.33
2019-04-06T02:17:32.395Z,49.83
2019-04-06T02:22:33.725Z,49.87
2019-04-06T02:27:35.124Z,51.67
2019-04-06T02:32:38.395Z,50.20
2019-04-06T02:37:44.504Z,49.87
2019-04-06T02:42:50.948Z,49.17
2019-04-06T02:47:52.293Z,51.23
2019-04-06T02:52:53.661Z,46.67
2019-04-06T02:57:55.208Z,48.90
2019-04-06T03:02:56.785Z,45.50
2019-04-06T03:07:58.203Z,47.83
2019-04-06T03:12:59.557Z,51.90
2019-04-06T03:18:01.006Z,49.47
2019-04-06T03:23:02.548Z,47.67
2019-04-06T03:28:04.099Z,51.17
2019-04-06T03:33:05.753Z,51.00
2019-04-06T03:38:07.227Z,51.27
2019-04-06T03:43:08.679Z,49.33
2019-04-06T03:48:10.214Z,49.40
2019-04-06T03:53:11.562Z,51.33
2019-04-06T03:58:12.888Z,45.00
2019-04-06T04:03:14.201Z,53.50
2019-04-06T04:08:15.751Z,49.43
2019-04-06T04:13:17.088Z,50.47
2019-04-06T04:18:18.382Z,48.30
2019-04-06T04:23:20.019Z,50.83
2019-04-06T04:28:21.321Z,49.87
2019-04-06T04:33:22.658Z,49.37
2019-04-06T04:38:23.971Z,51.40
2019-04-06T04:43:25.672Z,50.77
2019-04-06T04:48:27.040Z,50.33
2019-04-06T04:53:28.461Z,49.50
2019-04-06T04:58:29.917Z,47.37
2019-04-06T05:03:31.290Z,48.93
2019-04-06T05:08:32.783Z,48.60
2019-04-06T05:13:34.141Z,49.10
2019-04-06T05:18:35.508Z,47.73
2019-04-06T05:23:37.015Z,53.30
2019-04-06T05:28:38.324Z,51.70
2019-04-06T05:33:39.648Z,49.57
2019-04-06T05:38:40.960Z,49.17
2019-04-06T05:43:42.332Z,48.27
2019-04-06T05:48:43.633Z,48.73
2019-04-06T05:53:44.965Z,46.33
2019-04-06T05:58:46.275Z,46.37
2019-04-06T06:03:47.740Z,48.03
2019-04-06T06:08:49.040Z,46.80
2019-04-06T06:13:50.374Z,52.10
2019-04-06T06:18:51.718Z,49.17
2019-04-06T06:23:53.260Z,45.60
2019-04-06T06:28:54.553Z,42.07
2019-04-06T06:33:55.886Z,46.77
2019-04-06T06:38:57.192Z,49.57
2019-04-06T06:43:58.536Z,45.87
2019-04-06T06:48:59.968Z,45.93
2019-04-06T06:54:01.462Z,49.70
2019-04-06T06:59:03.105Z,49.80
2019-04-06T07:04:04.745Z,44.40
2019-04-06T07:09:07.162Z,44.90
2019-04-06T07:14:08.568Z,45.47
2019-04-06T07:19:09.962Z,44.93
2019-04-06T07:24:11.387Z,42.90
2019-04-06T07:29:12.716Z,50.47
2019-04-06T07:34:14.021Z,46.87
2019-04-06T07:39:15.343Z,46.00
2019-04-06T07:44:16.660Z,40.33
2019-04-06T07:49:17.992Z,44.47
2019-04-06T07:54:19.329Z,42.90
2019-04-06T07:59:20.650Z,39.73
2019-04-06T08:04:22.003Z,36.47
2019-04-06T08:09:23.306Z,42.67
2019-04-06T08:14:24.855Z,42.20
2019-04-06T08:19:26.263Z,38.93
2019-04-06T08:24:27.671Z,35.20
2019-04-06T08:29:29.236Z,36.70
2019-04-06T08:34:30.637Z,37.63
2019-04-06T08:39:31.960Z,40.03
2019-04-06T08:44:33.308Z,31.10
2019-04-06T08:49:34.811Z,34.63
2019-04-06T08:54:36.170Z,30.90
2019-04-06T08:59:37.500Z,36.73
2019-04-06T09:04:38.813Z,28.63
2019-04-06T09:09:40.138Z,34.33
2019-04-06T09:14:41.473Z,36.60
2019-04-06T09:19:42.784Z,27.57
2019-04-06T09:24:44.103Z,28.03
2019-04-06T09:29:45.454Z,29.33
2019-04-06T09:34:46.780Z,29.83
2019-04-06T09:39:48.134Z,26.63
2019-04-06T09:45:07.935Z,31.47
2019-04-06T09:50:11.281Z,24.80
2019-04-06T09:55:17.457Z,26.53
2019-04-06T10:00:39.275Z,25.17
2019-04-06T10:05:45.302Z,23.03
2019-04-06T10:10:48.674Z,24.50
2019-04-06T10:15:57.613Z,24.33
2019-04-06T10:21:12.966Z,23.30
2019-04-06T10:26:28.320Z,22.83
2019-04-06T10:31:50.141Z,20.17
2019-04-06T10:37:11.687Z,19.17
2019-04-06T10:42:15.646Z,18.37
2019-04-06T10:47:21.927Z,17.40
2019-04-06T10:52:39.163Z,17.67
2019-04-06T10:57:56.092Z,17.07
2019-04-06T11:03:11.330Z,15.27
2019-04-06T11:08:31.355Z,19.97
2019-04-06T11:13:51.047Z,27.60
2019-04-06T11:18:54.328Z,11.83
2019-04-06T11:24:03.903Z,12.50
2019-04-06T11:29:19.202Z,14.70
2019-04-06T11:34:39.165Z,11.50
2019-04-06T11:39:58.946Z,10.40
2019-04-06T11:45:17.364Z,10.77
2019-04-06T11:50:30.210Z,10.47
2019-04-06T11:55:36.297Z,10.63
2019-04-06T12:00:39.738Z,10.63
2019-04-06T12:05:43.058Z,11.17
2019-04-06T12:11:03.989Z,11.57
2019-04-06T12:16:07.574Z,10.13
2019-04-06T12:21:27.554Z,11.20
2019-04-06T12:26:36.502Z,11.13
2019-04-06T12:31:45.766Z,12.23
2019-04-06T12:37:02.609Z,12.63
2019-04-06T12:42:25.981Z,11.93
2019-04-06T12:47:29.565Z,10.80
2019-04-06T12:52:35.656Z,11.77
2019-04-06T12:57:41.922Z,13.93
2019-04-06T13:03:01.870Z,12.40
2019-04-06T13:08:05.486Z,12.90
2019-04-06T13:13:20.972Z,12.23
2019-04-06T13:18:36.227Z,12.90
2019-04-06T13:23:39.731Z,13.50
2019-04-06T13:28:46.051Z,14.17
2019-04-06T13:33:58.468Z,12.50
2019-04-06T13:39:10.708Z,13.23
2019-04-06T13:44:22.635Z,14.47
2019-04-06T13:49:25.883Z,14.13
2019-04-06T13:54:44.453Z,13.17
2019-04-06T13:59:50.425Z,13.53
2019-04-06T14:04:59.377Z,15.30
2019-04-06T14:10:02.674Z,14.20
2019-04-06T14:15:07.189Z,13.63
2019-04-06T14:20:27.197Z,11.53
2019-04-06T14:25:30.420Z,12.80
2019-04-06T14:30:33.735Z,11.20
2019-04-06T14:35:37.078Z,12.00
2019-04-06T14:40:40.353Z,14.20
2019-04-06T14:45:49.854Z,13.87
2019-04-06T14:51:04.891Z,15.33
2019-04-06T14:56:08.200Z,14.13
2019-04-06T15:01:38.437Z,13.97
2019-04-06T15:06:47.013Z,14.57
2019-04-06T15:11:50.486Z,13.50
2019-04-06T15:16:53.898Z,14.97
2019-04-06T15:22:14.130Z,14.53
2019-04-06T15:27:26.241Z,14.60
2019-04-06T15:32:35.620Z,15.37
2019-04-06T15:37:55.707Z,13.20
2019-04-06T15:42:59.091Z,15.27
2019-04-06T15:48:08.107Z,13.40
2019-04-06T15:53:28.392Z,13.53
2019-04-06T15:58:31.883Z,14.90
2019-04-06T16:03:50.509Z,14.23
2019-04-06T16:09:10.844Z,14.50
2019-04-06T16:14:16.653Z,15.43
2019-04-06T16:19:19.915Z,18.53
2019-04-06T16:24:39.939Z,15.93
2019-04-06T16:29:52.194Z,14.53
2019-04-06T16:35:01.560Z,14.33
2019-04-06T16:40:07.093Z,13.77
2019-04-06T16:45:10.654Z,15.27
2019-04-06T16:50:30.686Z,13.23
2019-04-06T16:55:34.366Z,13.53
2019-04-06T17:00:54.384Z,16.17
2019-04-06T17:06:14.985Z,14.83
2019-04-06T17:11:27.288Z,14.50
2019-04-06T17:16:30.575Z,14.07
2019-04-06T17:21:34.092Z,14.00
2019-04-06T17:26:54.816Z,14.60
2019-04-06T17:32:14.792Z,13.60
2019-04-06T17:37:20.064Z,15.13
2019-04-06T17:42:26.262Z,13.40
2019-04-06T17:47:35.394Z,13.03
2019-04-06T17:52:38.639Z,14.90
2019-04-06T17:57:44.715Z,14.23
2019-04-06T18:02:59.981Z,14.93
2019-04-06T18:08:06.043Z,14.23
2019-04-06T18:13:27.562Z,15.70
2019-04-06T18:18:29.161Z,15.93
2019-04-06T18:23:30.588Z,15.80
2019-04-06T18:28:31.984Z,16.63
2019-04-06T18:33:33.295Z,16.63
2019-04-06T18:38:39.202Z,16.00
2019-04-06T18:43:40.567Z,17.77
2019-04-06T18:48:42.122Z,17.57
2019-04-06T18:53:43.635Z,18.03
2019-04-06T18:58:44.975Z,18.80
2019-04-06T19:03:46.423Z,21.67
2019-04-06T19:08:47.805Z,18.40
2019-04-06T19:13:49.151Z,21.67
2019-04-06T19:18:51.012Z,16.93
2019-04-06T19:23:52.387Z,18.10
2019-04-06T19:28:53.770Z,17.23
2019-04-06T19:33:55.518Z,19.63
2019-04-06T19:38:57.831Z,20.70
2019-04-06T19:43:59.255Z,18.93
2019-04-06T19:49:01.199Z,18.43
2019-04-06T19:54:05.120Z,20.23
2019-04-06T19:59:07.046Z,22.50
2019-04-06T20:04:08.584Z,26.80
2019-04-06T20:09:10.099Z,32.70
2019-04-06T20:14:11.955Z,27.30
2019-04-06T20:19:13.342Z,26.17
2019-04-06T20:24:14.706Z,25.87
2019-04-06T20:29:16.058Z,24.03
2019-04-06T20:34:17.540Z,21.60
2019-04-06T20:39:18.915Z,23.87
2019-04-06T20:44:20.267Z,21.93
2019-04-06T20:49:22.066Z,25.07
2019-04-06T20:54:23.507Z,25.33
2019-04-06T20:59:25.695Z,27.73
2019-04-06T21:04:27.026Z,24.60
2019-04-06T21:09:28.412Z,28.33
2019-04-06T21:14:30.016Z,30.67
2019-04-06T21:19:31.570Z,24.70
2019-04-06T21:24:32.924Z,28.13
2019-04-06T21:29:34.579Z,30.43
2019-04-06T21:34:35.900Z,24.00
2019-04-06T21:39:37.287Z,24.17
2019-04-06T21:44:38.894Z,23.90
2019-04-06T21:49:40.246Z,27.43
2019-04-06T21:54:42.080Z,24.67
2019-04-06T21:59:43.466Z,28.13
2019-04-06T22:04:45.266Z,23.77
2019-04-06T22:09:46.958Z,24.80
2019-04-06T22:14:48.934Z,27.90
2019-04-06T22:19:50.519Z,26.20
2019-04-06T22:24:51.928Z,25.00
2019-04-06T22:29:54.258Z,25.60
2019-04-06T22:34:55.713Z,27.53
2019-04-06T22:39:57.084Z,28.40
2019-04-06T22:44:58.756Z,26.07
2019-04-06T22:50:00.496Z,30.10
2019-04-06T22:55:07.344Z,31.00
2019-04-06T23:00:12.438Z,36.00
2019-04-06T23:05:18.862Z,34.30
2019-04-06T23:10:20.395Z,35.60
2019-04-06T23:15:22.122Z,31.10
2019-04-06T23:20:23.556Z,34.17
2019-04-06T23:25:24.879Z,35.53
2019-04-06T23:30:26.525Z,31.93
2019-04-06T23:35:27.873Z,30.80
2019-04-06T23:40:29.507Z,36.20
2019-04-06T23:45:31.101Z,33.17
2019-04-06T23:50:33.055Z,37.30
2019-04-06T23:55:34.619Z,33.40
